sensor_id;sensor_type;location;lat;lon;timestamp;P1;P2;P0
33948;PMS7003;20229;49.856;19.030;2023-04-25T00:04:41;53;44;40
33948;PMS7003;20229;49.856;19.030;2023-04-25T00:09:54;55;46;42
33948;PMS7003;20229;49.856;19.030;2023-04-25T00:15:08;54;46;42
33948;PMS7003;20229;49.856;19.030;2023-04-25T00:20:23;56;47;42
33948;PMS7003;20229;49.856;19.030;2023-04-25T00:25:38;53;47;43
33948;PMS7003;20229;49.856;19.030;2023-04-25T00:30:52;57;49;43
33948;PMS7003;20229;49.856;19.030;2023-04-25T00:36:09;58;51;45
33948;PMS7003;20229;49.856;19.030;2023-04-25T00:41:25;54;47;42
33948;PMS7003;20229;49.856;19.030;2023-04-25T00:46:41;54;48;43
33948;PMS7003;20229;49.856;19.030;2023-04-25T00:51:55;53;47;43
33948;PMS7003;20229;49.856;19.030;2023-04-25T00:57:09;55;47;44
33948;PMS7003;20229;49.856;19.030;2023-04-25T01:02:23;55;48;44
33948;PMS7003;20229;49.856;19.030;2023-04-25T01:07:40;56;47;44
33948;PMS7003;20229;49.856;19.030;2023-04-25T01:12:55;52;44;40
33948;PMS7003;20229;49.856;19.030;2023-04-25T01:18:08;52;46;42
33948;PMS7003;20229;49.856;19.030;2023-04-25T01:23:24;53;46;44
33948;PMS7003;20229;49.856;19.030;2023-04-25T01:28:39;54;46;42
33948;PMS7003;20229;49.856;19.030;2023-04-25T01:33:56;52;44;40
33948;PMS7003;20229;49.856;19.030;2023-04-25T01:39:10;52;45;42
33948;PMS7003;20229;49.856;19.030;2023-04-25T01:44:24;54;45;40
33948;PMS7003;20229;49.856;19.030;2023-04-25T01:49:38;55;48;44
33948;PMS7003;20229;49.856;19.030;2023-04-25T01:54:52;58;52;50
33948;PMS7003;20229;49.856;19.030;2023-04-25T02:00:07;59;52;49
33948;PMS7003;20229;49.856;19.030;2023-04-25T02:05:23;53;44;39
33948;PMS7003;20229;49.856;19.030;2023-04-25T02:10:37;54;48;45
33948;PMS7003;20229;49.856;19.030;2023-04-25T02:15:51;57;53;51
33948;PMS7003;20229;49.856;19.030;2023-04-25T02:21:05;60;53;50
33948;PMS7003;20229;49.856;19.030;2023-04-25T02:26:19;58;53;49
33948;PMS7003;20229;49.856;19.030;2023-04-25T02:31:35;57;49;46
33948;PMS7003;20229;49.856;19.030;2023-04-25T02:36:49;57;47;44
33948;PMS7003;20229;49.856;19.030;2023-04-25T02:42:05;57;49;45
33948;PMS7003;20229;49.856;19.030;2023-04-25T02:47:19;54;45;40
33948;PMS7003;20229;49.856;19.030;2023-04-25T02:52:33;55;46;40
33948;PMS7003;20229;49.856;19.030;2023-04-25T02:57:47;47;40;35
33948;PMS7003;20229;49.856;19.030;2023-04-25T03:03:01;47;38;30
33948;PMS7003;20229;49.856;19.030;2023-04-25T03:08:14;70;63;55
33948;PMS7003;20229;49.856;19.030;2023-04-25T03:13:28;66;61;57
33948;PMS7003;20229;49.856;19.030;2023-04-25T03:18:44;63;58;54
33948;PMS7003;20229;49.856;19.030;2023-04-25T03:23:58;66;62;57
33948;PMS7003;20229;49.856;19.030;2023-04-25T03:29:12;62;58;53
33948;PMS7003;20229;49.856;19.030;2023-04-25T03:34:28;65;64;58
33948;PMS7003;20229;49.856;19.030;2023-04-25T03:39:42;68;67;57
33948;PMS7003;20229;49.856;19.030;2023-04-25T03:44:55;81;77;66
33948;PMS7003;20229;49.856;19.030;2023-04-25T03:50:09;78;77;64
33948;PMS7003;20229;49.856;19.030;2023-04-25T03:55:24;87;84;70
33948;PMS7003;20229;49.856;19.030;2023-04-25T04:00:38;80;79;66
33948;PMS7003;20229;49.856;19.030;2023-04-25T04:05:52;76;73;62
33948;PMS7003;20229;49.856;19.030;2023-04-25T04:11:06;78;71;63
33948;PMS7003;20229;49.856;19.030;2023-04-25T04:16:20;75;70;64
33948;PMS7003;20229;49.856;19.030;2023-04-25T04:21:34;65;60;58
33948;PMS7003;20229;49.856;19.030;2023-04-25T04:26:47;63;60;58
33948;PMS7003;20229;49.856;19.030;2023-04-25T04:32:01;63;57;54
33948;PMS7003;20229;49.856;19.030;2023-04-25T04:37:17;64;63;61
33948;PMS7003;20229;49.856;19.030;2023-04-25T04:42:32;70;67;66
33948;PMS7003;20229;49.856;19.030;2023-04-25T04:47:46;63;61;58
33948;PMS7003;20229;49.856;19.030;2023-04-25T04:53:03;71;67;65
33948;PMS7003;20229;49.856;19.030;2023-04-25T04:58:18;68;64;62
33948;PMS7003;20229;49.856;19.030;2023-04-25T05:03:32;63;61;58
33948;PMS7003;20229;49.856;19.030;2023-04-25T05:08:46;64;56;53
33948;PMS7003;20229;49.856;19.030;2023-04-25T05:14:00;72;67;60
33948;PMS7003;20229;49.856;19.030;2023-04-25T05:19:14;68;63;54
33948;PMS7003;20229;49.856;19.030;2023-04-25T05:24:27;72;67;59
33948;PMS7003;20229;49.856;19.030;2023-04-25T05:29:41;78;75;67
33948;PMS7003;20229;49.856;19.030;2023-04-25T05:34:55;82;80;73
33948;PMS7003;20229;49.856;19.030;2023-04-25T05:40:10;88;86;80
33948;PMS7003;20229;49.856;19.030;2023-04-25T05:45:24;82;80;67
33948;PMS7003;20229;49.856;19.030;2023-04-25T05:50:38;82;81;69
33948;PMS7003;20229;49.856;19.030;2023-04-25T05:55:52;63;54;47
33948;PMS7003;20229;49.856;19.030;2023-04-25T06:01:05;70;64;58
33948;PMS7003;20229;49.856;19.030;2023-04-25T06:06:19;46;38;30
33948;PMS7003;20229;49.856;19.030;2023-04-25T06:11:33;54;44;37
33948;PMS7003;20229;49.856;19.030;2023-04-25T06:16:47;62;52;49
33948;PMS7003;20229;49.856;19.030;2023-04-25T06:22:00;59;51;47
33948;PMS7003;20229;49.856;19.030;2023-04-25T06:27:15;62;53;51
33948;PMS7003;20229;49.856;19.030;2023-04-25T06:32:29;57;47;43
33948;PMS7003;20229;49.856;19.030;2023-04-25T06:37:43;50;42;36
33948;PMS7003;20229;49.856;19.030;2023-04-25T06:42:57;53;44;38
33948;PMS7003;20229;49.856;19.030;2023-04-25T06:48:11;58;47;42
33948;PMS7003;20229;49.856;19.030;2023-04-25T06:53:25;58;47;43
33948;PMS7003;20229;49.856;19.030;2023-04-25T06:58:38;56;47;43
33948;PMS7003;20229;49.856;19.030;2023-04-25T07:03:52;62;52;49
33948;PMS7003;20229;49.856;19.030;2023-04-25T07:09:06;62;51;49
33948;PMS7003;20229;49.856;19.030;2023-04-25T07:14:21;59;48;44
33948;PMS7003;20229;49.856;19.030;2023-04-25T07:19:35;64;53;52
33948;PMS7003;20229;49.856;19.030;2023-04-25T07:24:52;58;49;43
33948;PMS7003;20229;49.856;19.030;2023-04-25T07:30:06;57;48;42
33948;PMS7003;20229;49.856;19.030;2023-04-25T07:35:21;51;43;35
33948;PMS7003;20229;49.856;19.030;2023-04-25T07:40:36;53;45;38
33948;PMS7003;20229;49.856;19.030;2023-04-25T07:45:50;54;45;37
33948;PMS7003;20229;49.856;19.030;2023-04-25T07:51:04;62;50;47
33948;PMS7003;20229;49.856;19.030;2023-04-25T07:56:19;57;47;41
33948;PMS7003;20229;49.856;19.030;2023-04-25T08:01:33;63;53;50
33948;PMS7003;20229;49.856;19.030;2023-04-25T08:06:48;78;74;72
33948;PMS7003;20229;49.856;19.030;2023-04-25T08:12:01;70;58;55
33948;PMS7003;20229;49.856;19.030;2023-04-25T08:17:16;57;47;39
33948;PMS7003;20229;49.856;19.030;2023-04-25T08:22:30;65;53;47
33948;PMS7003;20229;49.856;19.030;2023-04-25T08:27:44;64;53;48
33948;PMS7003;20229;49.856;19.030;2023-04-25T08:32:58;72;63;61
33948;PMS7003;20229;49.856;19.030;2023-04-25T08:38:12;72;63;61
33948;PMS7003;20229;49.856;19.030;2023-04-25T08:43:26;81;77;75
33948;PMS7003;20229;49.856;19.030;2023-04-25T08:48:45;91;89;87
33948;PMS7003;20229;49.856;19.030;2023-04-25T08:54:09;93;90;87
33948;PMS7003;20229;49.856;19.030;2023-04-25T08:59:24;71;62;59
33948;PMS7003;20229;49.856;19.030;2023-04-25T09:04:40;77;72;69
33948;PMS7003;20229;49.856;19.030;2023-04-25T09:09:56;78;73;71
33948;PMS7003;20229;49.856;19.030;2023-04-25T09:15:12;86;84;82
33948;PMS7003;20229;49.856;19.030;2023-04-25T09:20:26;89;87;86
33948;PMS7003;20229;49.856;19.030;2023-04-25T09:25:41;92;90;88
33948;PMS7003;20229;49.856;19.030;2023-04-25T09:33:09;101;99;97
33948;PMS7003;20229;49.856;19.030;2023-04-25T09:43:58;103;101;97
33948;PMS7003;20229;49.856;19.030;2023-04-25T09:49:13;87;84;83
33948;PMS7003;20229;49.856;19.030;2023-04-25T09:54:29;86;81;78
33948;PMS7003;20229;49.856;19.030;2023-04-25T09:59:47;91;85;82
33948;PMS7003;20229;49.856;19.030;2023-04-25T10:05:05;99;98;96
33948;PMS7003;20229;49.856;19.030;2023-04-25T10:10:21;98;97;95
33948;PMS7003;20229;49.856;19.030;2023-04-25T10:15:40;108;107;105
33948;PMS7003;20229;49.856;19.030;2023-04-25T10:20:55;143;142;141
33948;PMS7003;20229;49.856;19.030;2023-04-25T10:26:11;125;125;124
33948;PMS7003;20229;49.856;19.030;2023-04-25T10:31:27;132;132;130
33948;PMS7003;20229;49.856;19.030;2023-04-25T10:36:48;131;131;130
33948;PMS7003;20229;49.856;19.030;2023-04-25T10:42:06;131;129;127
33948;PMS7003;20229;49.856;19.030;2023-04-25T10:47:21;151;151;149
33948;PMS7003;20229;49.856;19.030;2023-04-25T10:52:46;142;142;140
33948;PMS7003;20229;49.856;19.030;2023-04-25T10:58:00;125;125;123
33948;PMS7003;20229;49.856;19.030;2023-04-25T11:03:15;130;130;129
33948;PMS7003;20229;49.856;19.030;2023-04-25T11:08:49;140;139;137
33948;PMS7003;20229;49.856;19.030;2023-04-25T11:13:58;139;139;137
33948;PMS7003;20229;49.856;19.030;2023-04-25T11:19:13;130;129;127
33948;PMS7003;20229;49.856;19.030;2023-04-25T11:24:27;135;135;133
33948;PMS7003;20229;49.856;19.030;2023-04-25T11:29:41;129;128;127
33948;PMS7003;20229;49.856;19.030;2023-04-25T11:34:55;138;137;136
33948;PMS7003;20229;49.856;19.030;2023-04-25T11:40:11;134;133;132
33948;PMS7003;20229;49.856;19.030;2023-04-25T11:45:26;129;128;127
33948;PMS7003;20229;49.856;19.030;2023-04-25T11:50:40;136;134;134
33948;PMS7003;20229;49.856;19.030;2023-04-25T11:55:54;130;129;127
33948;PMS7003;20229;49.856;19.030;2023-04-25T12:01:09;131;131;129
33948;PMS7003;20229;49.856;19.030;2023-04-25T12:06:27;134;134;133
33948;PMS7003;20229;49.856;19.030;2023-04-25T12:11:45;125;125;124
33948;PMS7003;20229;49.856;19.030;2023-04-25T12:17:01;122;122;121
33948;PMS7003;20229;49.856;19.030;2023-04-25T12:27:38;116;116;116
33948;PMS7003;20229;49.856;19.030;2023-04-25T12:32:56;114;114;112
33948;PMS7003;20229;49.856;19.030;2023-04-25T12:38:10;111;110;109
33948;PMS7003;20229;49.856;19.030;2023-04-25T12:43:24;111;110;109
33948;PMS7003;20229;49.856;19.030;2023-04-25T12:48:38;104;102;100
33948;PMS7003;20229;49.856;19.030;2023-04-25T12:53:52;100;97;95
33948;PMS7003;20229;49.856;19.030;2023-04-25T12:59:07;110;109;108
33948;PMS7003;20229;49.856;19.030;2023-04-25T13:04:22;105;103;101
33948;PMS7003;20229;49.856;19.030;2023-04-25T13:09:37;102;100;98
33948;PMS7003;20229;49.856;19.030;2023-04-25T13:14:51;109;107;106
33948;PMS7003;20229;49.856;19.030;2023-04-25T13:20:05;100;98;96
33948;PMS7003;20229;49.856;19.030;2023-04-25T13:25:22;114;112;111
33948;PMS7003;20229;49.856;19.030;2023-04-25T13:30:36;95;93;91
33948;PMS7003;20229;49.856;19.030;2023-04-25T13:35:51;108;107;106
33948;PMS7003;20229;49.856;19.030;2023-04-25T13:41:10;98;96;94
33948;PMS7003;20229;49.856;19.030;2023-04-25T13:46:31;93;89;87
33948;PMS7003;20229;49.856;19.030;2023-04-25T13:51:45;99;97;96
33948;PMS7003;20229;49.856;19.030;2023-04-25T13:56:59;103;100;99
33948;PMS7003;20229;49.856;19.030;2023-04-25T14:02:14;103;101;97
33948;PMS7003;20229;49.856;19.030;2023-04-25T14:07:28;98;95;92
33948;PMS7003;20229;49.856;19.030;2023-04-25T14:12:44;109;107;105
33948;PMS7003;20229;49.856;19.030;2023-04-25T14:17:59;100;99;97
33948;PMS7003;20229;49.856;19.030;2023-04-25T14:23:13;89;87;85
33948;PMS7003;20229;49.856;19.030;2023-04-25T14:28:27;100;99;96
33948;PMS7003;20229;49.856;19.030;2023-04-25T14:33:41;93;91;90
33948;PMS7003;20229;49.856;19.030;2023-04-25T14:38:56;85;80;76
33948;PMS7003;20229;49.856;19.030;2023-04-25T14:44:10;90;87;84
33948;PMS7003;20229;49.856;19.030;2023-04-25T14:49:25;100;98;96
33948;PMS7003;20229;49.856;19.030;2023-04-25T14:54:41;79;70;67
33948;PMS7003;20229;49.856;19.030;2023-04-25T14:59:55;88;86;84
33948;PMS7003;20229;49.856;19.030;2023-04-25T15:05:09;104;103;101
33948;PMS7003;20229;49.856;19.030;2023-04-25T15:10:23;113;111;109
33948;PMS7003;20229;49.856;19.030;2023-04-25T15:15:37;113;111;109
33948;PMS7003;20229;49.856;19.030;2023-04-25T15:20:52;103;101;99
33948;PMS7003;20229;49.856;19.030;2023-04-25T15:26:06;98;96;93
33948;PMS7003;20229;49.856;19.030;2023-04-25T15:31:21;105;104;102
33948;PMS7003;20229;49.856;19.030;2023-04-25T15:36:35;99;98;96
33948;PMS7003;20229;49.856;19.030;2023-04-25T15:41:50;97;95;93
33948;PMS7003;20229;49.856;19.030;2023-04-25T15:47:03;100;98;96
33948;PMS7003;20229;49.856;19.030;2023-04-25T15:52:17;96;94;92
33948;PMS7003;20229;49.856;19.030;2023-04-25T15:57:34;107;103;101
33948;PMS7003;20229;49.856;19.030;2023-04-25T16:02:49;97;95;92
33948;PMS7003;20229;49.856;19.030;2023-04-25T16:08:04;98;97;93
33948;PMS7003;20229;49.856;19.030;2023-04-25T16:13:18;104;102;100
33948;PMS7003;20229;49.856;19.030;2023-04-25T16:18:31;104;102;99
33948;PMS7003;20229;49.856;19.030;2023-04-25T16:23:45;97;94;91
33948;PMS7003;20229;49.856;19.030;2023-04-25T16:29:01;113;111;107
33948;PMS7003;20229;49.856;19.030;2023-04-25T16:34:16;112;110;105
33948;PMS7003;20229;49.856;19.030;2023-04-25T16:39:30;83;74;70
33948;PMS7003;20229;49.856;19.030;2023-04-25T16:44:44;75;63;60
33948;PMS7003;20229;49.856;19.030;2023-04-25T16:50:00;93;86;82
33948;PMS7003;20229;49.856;19.030;2023-04-25T16:55:15;64;52;44
33948;PMS7003;20229;49.856;19.030;2023-04-25T17:00:28;56;47;38
33948;PMS7003;20229;49.856;19.030;2023-04-25T17:05:42;49;42;37
33948;PMS7003;20229;49.856;19.030;2023-04-25T17:10:58;52;44;36
33948;PMS7003;20229;49.856;19.030;2023-04-25T17:16:12;26;23;16
33948;PMS7003;20229;49.856;19.030;2023-04-25T17:21:30;64;56;48
33948;PMS7003;20229;49.856;19.030;2023-04-25T17:26:46;79;70;65
33948;PMS7003;20229;49.856;19.030;2023-04-25T17:32:00;114;109;106
33948;PMS7003;20229;49.856;19.030;2023-04-25T17:37:14;137;134;129
33948;PMS7003;20229;49.856;19.030;2023-04-25T17:42:29;106;103;99
33948;PMS7003;20229;49.856;19.030;2023-04-25T17:47:43;90;86;82
33948;PMS7003;20229;49.856;19.030;2023-04-25T17:52:57;90;84;79
33948;PMS7003;20229;49.856;19.030;2023-04-25T17:58:15;86;81;76
33948;PMS7003;20229;49.856;19.030;2023-04-25T18:03:29;68;58;51
33948;PMS7003;20229;49.856;19.030;2023-04-25T18:08:46;82;76;69
33948;PMS7003;20229;49.856;19.030;2023-04-25T18:14:00;85;80;73
33948;PMS7003;20229;49.856;19.030;2023-04-25T18:19:14;84;81;74
33948;PMS7003;20229;49.856;19.030;2023-04-25T18:24:33;89;81;72
33948;PMS7003;20229;49.856;19.030;2023-04-25T18:29:47;92;84;72
33948;PMS7003;20229;49.856;19.030;2023-04-25T18:35:01;86;80;72
33948;PMS7003;20229;49.856;19.030;2023-04-25T18:40:15;93;88;80
33948;PMS7003;20229;49.856;19.030;2023-04-25T18:45:29;92;84;75
33948;PMS7003;20229;49.856;19.030;2023-04-25T18:50:43;97;92;81
33948;PMS7003;20229;49.856;19.030;2023-04-25T18:55:56;96;87;76
33948;PMS7003;20229;49.856;19.030;2023-04-25T19:01:10;92;86;74
33948;PMS7003;20229;49.856;19.030;2023-04-25T19:06:25;94;86;74
33948;PMS7003;20229;49.856;19.030;2023-04-25T19:11:41;93;85;73
33948;PMS7003;20229;49.856;19.030;2023-04-25T19:16:56;79;74;66
33948;PMS7003;20229;49.856;19.030;2023-04-25T19:22:11;79;71;63
33948;PMS7003;20229;49.856;19.030;2023-04-25T19:27:26;79;71;63
33948;PMS7003;20229;49.856;19.030;2023-04-25T19:32:40;77;71;64
33948;PMS7003;20229;49.856;19.030;2023-04-25T19:37:53;73;62;57
33948;PMS7003;20229;49.856;19.030;2023-04-25T19:43:07;73;63;59
33948;PMS7003;20229;49.856;19.030;2023-04-25T19:48:21;73;63;57
33948;PMS7003;20229;49.856;19.030;2023-04-25T19:53:35;77;69;65
33948;PMS7003;20229;49.856;19.030;2023-04-25T19:58:49;79;72;68
33948;PMS7003;20229;49.856;19.030;2023-04-25T20:04:03;71;60;54
33948;PMS7003;20229;49.856;19.030;2023-04-25T20:09:18;72;61;55
33948;PMS7003;20229;49.856;19.030;2023-04-25T20:14:35;69;59;55
33948;PMS7003;20229;49.856;19.030;2023-04-25T20:19:51;70;59;54
33948;PMS7003;20229;49.856;19.030;2023-04-25T20:25:05;74;64;61
33948;PMS7003;20229;49.856;19.030;2023-04-25T20:30:21;77;68;66
33948;PMS7003;20229;49.856;19.030;2023-04-25T20:35:35;75;65;61
33948;PMS7003;20229;49.856;19.030;2023-04-25T20:40:50;63;52;46
33948;PMS7003;20229;49.856;19.030;2023-04-25T20:46:04;67;57;52
33948;PMS7003;20229;49.856;19.030;2023-04-25T20:51:18;79;69;63
33948;PMS7003;20229;49.856;19.030;2023-04-25T20:56:32;78;69;62
33948;PMS7003;20229;49.856;19.030;2023-04-25T21:01:48;81;72;65
33948;PMS7003;20229;49.856;19.030;2023-04-25T21:07:03;72;60;55
33948;PMS7003;20229;49.856;19.030;2023-04-25T21:12:16;82;77;70
33948;PMS7003;20229;49.856;19.030;2023-04-25T21:17:30;74;69;62
33948;PMS7003;20229;49.856;19.030;2023-04-25T21:22:45;86;81;71
33948;PMS7003;20229;49.856;19.030;2023-04-25T21:28:03;90;85;75
33948;PMS7003;20229;49.856;19.030;2023-04-25T21:33:17;102;100;84
33948;PMS7003;20229;49.856;19.030;2023-04-25T21:38:31;99;98;82
33948;PMS7003;20229;49.856;19.030;2023-04-25T21:43:44;96;93;78
33948;PMS7003;20229;49.856;19.030;2023-04-25T21:48:58;104;100;84
33948;PMS7003;20229;49.856;19.030;2023-04-25T21:54:12;108;106;85
33948;PMS7003;20229;49.856;19.030;2023-04-25T21:59:26;119;115;92
33948;PMS7003;20229;49.856;19.030;2023-04-25T22:04:41;134;130;106
33948;PMS7003;20229;49.856;19.030;2023-04-25T22:10:00;124;120;97
33948;PMS7003;20229;49.856;19.030;2023-04-25T22:15:14;108;105;93
33948;PMS7003;20229;49.856;19.030;2023-04-25T22:20:35;106;102;89
33948;PMS7003;20229;49.856;19.030;2023-04-25T22:25:50;84;80;75
33948;PMS7003;20229;49.856;19.030;2023-04-25T22:31:04;86;84;81
33948;PMS7003;20229;49.856;19.030;2023-04-25T22:36:17;73;69;66
33948;PMS7003;20229;49.856;19.030;2023-04-25T22:41:33;79;72;69
33948;PMS7003;20229;49.856;19.030;2023-04-25T22:46:47;75;67;64
33948;PMS7003;20229;49.856;19.030;2023-04-25T22:52:00;81;78;76
33948;PMS7003;20229;49.856;19.030;2023-04-25T22:57:19;53;47;44
33948;PMS7003;20229;49.856;19.030;2023-04-25T23:02:33;90;88;88
33948;PMS7003;20229;49.856;19.030;2023-04-25T23:07:47;78;74;73
33948;PMS7003;20229;49.856;19.030;2023-04-25T23:13:01;79;75;73
33948;PMS7003;20229;49.856;19.030;2023-04-25T23:18:16;76;73;70
33948;PMS7003;20229;49.856;19.030;2023-04-25T23:23:29;85;82;81
33948;PMS7003;20229;49.856;19.030;2023-04-25T23:28:43;99;96;95
33948;PMS7003;20229;49.856;19.030;2023-04-25T23:33:59;98;98;96
33948;PMS7003;20229;49.856;19.030;2023-04-25T23:39:12;93;91;88
33948;PMS7003;20229;49.856;19.030;2023-04-25T23:44:26;98;97;94
33948;PMS7003;20229;49.856;19.030;2023-04-25T23:49:40;90;88;86
33948;PMS7003;20229;49.856;19.030;2023-04-25T23:54:54;90;88;86
